Time;durP1;ratioP1;P1;durP2;ratioP2;P2;SDS_P1;SDS_P2;PMS_P1;PMS_P2;Temp;Humidity;BMP_temperature;BMP_pressure;BME280_temperature;BME280_humidity;BME280_pressure;Samples;Min_cycle;Max_cycle;Signal;HPM_P1;HPM_P2
2021/01/22 00:01:59;;;;;;;12.15;8.05;;;23.30;30.60;;;;;;6099143;28;80719;-62
2021/01/22 00:05:00;;;;;;;15.25;8.82;;;23.30;30.40;;;;;;6114861;28;81530;-62
2021/01/22 00:08:00;;;;;;;25.85;12.23;;;23.30;30.40;;;;;;6091017;28;80044;-62
2021/01/22 00:11:01;;;;;;;19.10;10.18;;;23.30;31.10;;;;;;6100133;28;83354;-62
2021/01/22 00:14:02;;;;;;;17.25;10.20;;;23.30;31.00;;;;;;6094301;28;82870;-62
2021/01/22 00:17:03;;;;;;;16.98;9.15;;;23.30;31.10;;;;;;6095215;28;83344;-62
2021/01/22 00:20:03;;;;;;;18.00;9.52;;;23.30;31.20;;;;;;6090134;28;83491;-62
2021/01/22 00:23:04;;;;;;;18.67;9.60;;;23.30;30.80;;;;;;6100891;28;80734;-61
2021/01/22 00:26:04;;;;;;;14.73;7.47;;;23.30;30.90;;;;;;6095101;28;82661;-62
2021/01/22 00:29:05;;;;;;;16.25;8.20;;;23.30;31.70;;;;;;6090408;28;80512;-61
2021/01/22 00:32:06;;;;;;;16.52;8.00;;;23.20;31.30;;;;;;6099682;28;80663;-61
2021/01/22 00:35:06;;;;;;;14.32;7.53;;;23.30;31.20;;;;;;6102908;28;80474;-62
2021/01/22 00:38:07;;;;;;;10.95;6.70;;;23.20;31.20;;;;;;6095895;28;82822;-62
2021/01/22 00:41:07;;;;;;;10.93;6.20;;;23.20;31.30;;;;;;6089051;28;81603;-62
2021/01/22 00:44:08;;;;;;;8.93;4.75;;;23.20;31.10;;;;;;6100127;28;80490;-61
2021/01/22 00:47:09;;;;;;;12.52;5.57;;;23.20;31.70;;;;;;6092758;28;81301;-60
2021/01/22 00:50:09;;;;;;;10.02;5.38;;;23.20;31.60;;;;;;6104366;28;80295;-61
2021/01/22 00:53:10;;;;;;;9.40;5.32;;;23.20;31.50;;;;;;6107203;28;83318;-61
2021/01/22 00:56:11;;;;;;;9.10;4.25;;;23.20;31.30;;;;;;6105289;28;83714;-61
2021/01/22 00:59:16;;;;;;;8.27;4.28;;;23.20;31.20;;;;;;6095921;28;83604;-61
2021/01/22 01:02:19;;;;;;;6.65;3.80;;;23.20;31.20;;;;;;6108187;28;91867;-60
2021/01/22 01:05:20;;;;;;;7.22;4.20;;;23.20;31.80;;;;;;6098952;28;80596;-61
2021/01/22 01:08:21;;;;;;;9.93;4.20;;;23.10;31.00;;;;;;6101412;28;82210;-61
2021/01/22 01:11:36;;;;;;;7.93;4.35;;;23.10;31.10;;;;;;6096221;28;83023;-61
2021/01/22 01:14:46;;;;;;;8.25;4.30;;;23.10;31.40;;;;;;6098768;28;87408;-62
2021/01/22 01:17:53;;;;;;;7.90;3.50;;;23.10;32.00;;;;;;6104118;28;81515;-62
2021/01/22 01:20:54;;;;;;;5.65;3.42;;;23.10;31.80;;;;;;6102660;28;82469;-62
2021/01/22 01:23:55;;;;;;;5.88;3.40;;;23.10;31.70;;;;;;6101126;28;81608;-61
2021/01/22 01:26:55;;;;;;;5.75;3.22;;;23.10;32.40;;;;;;6097252;28;81551;-62
2021/01/22 01:29:56;;;;;;;4.10;2.70;;;23.10;31.80;;;;;;6105375;28;80792;-61
2021/01/22 01:32:56;;;;;;;5.45;2.88;;;23.10;31.70;;;;;;6102903;28;81002;-62
2021/01/22 01:35:57;;;;;;;5.13;3.00;;;23.10;32.00;;;;;;6105011;28;83021;-62
2021/01/22 01:38:57;;;;;;;5.35;3.13;;;23.10;31.90;;;;;;6106286;28;80738;-61
2021/01/22 01:41:58;;;;;;;5.82;2.72;;;23.10;32.10;;;;;;6105542;28;81436;-61
2021/01/22 01:44:58;;;;;;;5.22;2.70;;;23.10;32.00;;;;;;6107671;28;81538;-60
2021/01/22 01:47:59;;;;;;;4.88;2.53;;;23.10;32.10;;;;;;6105063;28;82686;-60
2021/01/22 01:51:00;;;;;;;5.93;2.35;;;23.10;31.80;;;;;;6102607;28;87341;-61
2021/01/22 01:54:00;;;;;;;5.35;2.63;;;23.10;31.90;;;;;;6099479;28;81411;-61
2021/01/22 01:57:01;;;;;;;6.03;2.90;;;23.10;32.00;;;;;;6103900;28;80798;-61
2021/01/22 02:00:01;;;;;;;3.25;1.92;;;23.10;32.00;;;;;;6095813;28;80327;-61
2021/01/22 02:03:02;;;;;;;7.32;2.85;;;23.10;32.00;;;;;;6104714;28;81595;-61
2021/01/22 02:06:02;;;;;;;5.35;2.90;;;23.10;32.20;;;;;;6099984;28;80166;-61
2021/01/22 02:09:03;;;;;;;3.92;2.22;;;23.10;32.10;;;;;;6098904;28;81131;-61
2021/01/22 02:12:03;;;;;;;4.60;2.25;;;23.10;32.10;;;;;;6101881;28;83222;-61
2021/01/22 02:15:04;;;;;;;6.00;2.30;;;23.10;32.30;;;;;;6098441;28;81524;-61
2021/01/22 02:18:04;;;;;;;4.30;2.20;;;23.10;32.20;;;;;;6091796;28;84072;-61
2021/01/22 02:21:05;;;;;;;5.13;2.13;;;23.10;32.30;;;;;;6099849;28;81537;-61
2021/01/22 02:24:06;;;;;;;4.25;2.15;;;23.10;33.00;;;;;;6098448;28;81053;-61
2021/01/22 02:27:06;;;;;;;5.60;2.25;;;23.20;32.40;;;;;;6105580;28;81318;-61
2021/01/22 02:30:07;;;;;;;3.33;2.00;;;23.10;32.40;;;;;;6101248;28;81503;-61
2021/01/22 02:33:07;;;;;;;3.78;2.20;;;23.10;32.40;;;;;;6104346;28;80655;-61
2021/01/22 02:36:08;;;;;;;5.00;2.38;;;23.10;32.40;;;;;;6099064;28;80675;-61
2021/01/22 02:39:08;;;;;;;5.53;2.65;;;23.10;32.60;;;;;;6104024;28;81775;-61
2021/01/22 02:42:09;;;;;;;3.35;1.98;;;23.10;32.50;;;;;;6097844;28;80894;-61
2021/01/22 02:45:09;;;;;;;4.22;1.95;;;23.10;32.70;;;;;;6102989;28;90136;-61
2021/01/22 02:48:10;;;;;;;4.80;2.40;;;23.10;32.70;;;;;;6095173;28;80865;-61
2021/01/22 02:51:10;;;;;;;4.32;2.00;;;23.20;32.80;;;;;;6105212;28;80511;-61
2021/01/22 02:54:11;;;;;;;4.80;2.05;;;23.10;32.60;;;;;;6104240;28;80309;-62
2021/01/22 02:57:12;;;;;;;5.13;2.35;;;23.10;32.50;;;;;;6101181;28;80995;-61
2021/01/22 03:00:12;;;;;;;2.97;1.88;;;23.10;32.40;;;;;;6097793;28;81420;-62
2021/01/22 03:03:13;;;;;;;4.68;2.00;;;23.10;32.60;;;;;;6102801;28;80707;-62
2021/01/22 03:06:13;;;;;;;4.20;2.10;;;23.10;32.30;;;;;;6094441;28;81295;-62
2021/01/22 03:09:14;;;;;;;7.97;2.20;;;23.10;32.30;;;;;;6101927;28;81416;-62
2021/01/22 03:12:14;;;;;;;5.63;2.30;;;23.10;32.70;;;;;;6101538;28;80628;-61
2021/01/22 03:15:15;;;;;;;2.60;1.40;;;23.10;32.30;;;;;;6104272;28;80531;-62
2021/01/22 03:18:15;;;;;;;3.22;1.70;;;23.10;32.50;;;;;;6104127;28;82694;-62
2021/01/22 03:21:16;;;;;;;4.53;2.10;;;23.10;32.40;;;;;;6104253;28;80807;-61
2021/01/22 03:24:16;;;;;;;2.58;1.77;;;23.00;32.50;;;;;;6105626;28;81089;-62
2021/01/22 03:27:17;;;;;;;3.97;1.73;;;23.00;32.50;;;;;;6102890;28;81008;-62
2021/01/22 03:30:18;;;;;;;4.43;1.73;;;23.00;32.50;;;;;;6100958;28;81522;-62
2021/01/22 03:33:18;;;;;;;2.92;1.73;;;23.00;32.40;;;;;;6104245;28;80764;-62
2021/01/22 03:36:19;;;;;;;3.25;1.85;;;23.00;32.40;;;;;;6094362;28;80547;-62
2021/01/22 03:39:19;;;;;;;5.80;2.08;;;23.00;32.40;;;;;;6103585;28;80715;-62
2021/01/22 03:42:20;;;;;;;5.55;2.15;;;23.00;32.30;;;;;;6101752;28;80605;-62
2021/01/22 03:45:20;;;;;;;3.80;2.00;;;23.00;32.40;;;;;;6101742;28;80625;-62
2021/01/22 03:48:21;;;;;;;3.47;1.88;;;23.00;32.20;;;;;;6088936;28;80705;-62
2021/01/22 03:51:21;;;;;;;3.13;1.50;;;23.00;32.10;;;;;;6097656;28;80477;-62
2021/01/22 03:54:22;;;;;;;5.93;2.05;;;23.00;32.10;;;;;;6101950;28;80658;-61
2021/01/22 03:57:22;;;;;;;3.72;1.85;;;23.00;32.20;;;;;;6098212;28;80320;-62
2021/01/22 04:00:23;;;;;;;3.72;1.98;;;23.00;32.30;;;;;;6100220;28;81710;-62
2021/01/22 04:03:24;;;;;;;3.67;1.73;;;23.00;32.50;;;;;;6100929;28;81790;-62
2021/01/22 04:06:24;;;;;;;3.50;1.75;;;23.00;32.10;;;;;;6099783;28;81163;-61
2021/01/22 04:09:25;;;;;;;3.45;1.77;;;22.90;32.20;;;;;;6102877;28;80808;-61
2021/01/22 04:12:25;;;;;;;4.15;1.90;;;23.00;32.10;;;;;;6098632;28;81104;-62
2021/01/22 04:15:26;;;;;;;3.50;1.58;;;23.00;32.30;;;;;;6102311;28;81124;-62
2021/01/22 04:18:26;;;;;;;3.28;1.70;;;23.00;32.60;;;;;;6098999;28;80822;-62
2021/01/22 04:21:27;;;;;;;4.13;1.83;;;23.00;33.00;;;;;;6101630;28;81238;-62
2021/01/22 04:24:27;;;;;;;4.10;1.67;;;23.00;32.70;;;;;;6089202;28;81412;-62
2021/01/22 04:27:28;;;;;;;4.03;1.80;;;22.90;33.20;;;;;;6101109;28;80595;-62
2021/01/22 04:30:29;;;;;;;2.85;1.60;;;23.00;33.20;;;;;;6099742;28;83174;-62
2021/01/22 04:33:29;;;;;;;4.47;1.73;;;23.00;32.80;;;;;;6100906;28;81677;-61
2021/01/22 04:36:30;;;;;;;3.05;1.75;;;23.00;32.80;;;;;;6101185;28;80449;-60
2021/01/22 04:39:32;;;;;;;3.00;1.50;;;23.00;33.70;;;;;;6100571;28;84701;-61
2021/01/22 04:42:32;;;;;;;2.60;1.27;;;23.00;32.80;;;;;;6102394;28;80778;-62
2021/01/22 04:45:33;;;;;;;3.10;1.55;;;23.00;33.30;;;;;;6096954;28;80841;-61
2021/01/22 04:48:33;;;;;;;4.25;1.70;;;23.10;33.50;;;;;;6103262;28;81124;-60
2021/01/22 04:51:34;;;;;;;3.47;1.55;;;23.10;31.70;;;;;;6104104;28;80776;-61
2021/01/22 04:54:36;;;;;;;3.15;1.52;;;23.10;31.80;;;;;;6098229;28;81344;-61
2021/01/22 04:57:37;;;;;;;3.00;1.52;;;23.10;31.70;;;;;;6103855;28;80581;-61
2021/01/22 05:00:37;;;;;;;4.82;1.80;;;23.10;31.60;;;;;;6099364;28;80870;-61
2021/01/22 05:03:38;;;;;;;3.47;1.70;;;23.20;31.40;;;;;;6102582;28;81761;-63
2021/01/22 05:06:38;;;;;;;3.40;1.80;;;23.20;31.50;;;;;;6103160;28;80561;-62
2021/01/22 05:09:39;;;;;;;4.53;1.88;;;23.20;32.60;;;;;;6094126;28;82208;-62
2021/01/22 05:12:40;;;;;;;4.75;1.77;;;23.30;32.20;;;;;;6092505;28;81729;-62
2021/01/22 05:15:41;;;;;;;3.05;1.92;;;23.30;32.00;;;;;;6101566;28;81255;-61
2021/01/22 05:18:41;;;;;;;3.20;1.80;;;23.30;32.10;;;;;;6098929;28;80936;-61
2021/01/22 05:21:42;;;;;;;3.85;1.92;;;23.40;32.40;;;;;;6069523;28;80985;-61
2021/01/22 05:24:42;;;;;;;2.92;1.70;;;23.50;32.70;;;;;;6095971;28;80676;-60
2021/01/22 05:27:43;;;;;;;4.63;1.85;;;23.60;33.30;;;;;;6075470;28;80912;-64
2021/01/22 05:30:43;;;;;;;3.17;1.88;;;23.50;33.80;;;;;;6103672;28;80722;-60
2021/01/22 05:33:44;;;;;;;5.88;1.85;;;23.50;33.60;;;;;;6104075;28;83232;-61
2021/01/22 05:36:44;;;;;;;3.85;1.58;;;23.60;34.50;;;;;;6104119;28;80729;-62
2021/01/22 05:39:45;;;;;;;7.55;2.22;;;23.60;34.30;;;;;;6103457;28;81684;-62
2021/01/22 05:42:46;;;;;;;4.00;1.80;;;23.60;33.90;;;;;;6105423;28;82818;-61
2021/01/22 05:45:46;;;;;;;3.58;1.77;;;23.70;34.00;;;;;;6100616;28;80708;-63
2021/01/22 05:48:47;;;;;;;3.88;1.92;;;23.60;34.10;;;;;;6106455;28;81768;-62
2021/01/22 05:51:47;;;;;;;7.88;2.20;;;23.60;34.50;;;;;;6099619;28;81380;-62
2021/01/22 05:54:48;;;;;;;5.07;1.70;;;23.70;34.60;;;;;;6097989;28;80159;-62
2021/01/22 05:57:48;;;;;;;7.70;2.38;;;23.60;35.20;;;;;;6081103;28;80972;-62
2021/01/22 06:00:49;;;;;;;6.50;1.90;;;23.70;33.90;;;;;;6105829;28;80636;-63
2021/01/22 06:03:50;;;;;;;4.50;1.63;;;23.70;34.40;;;;;;6092489;28;80717;-61
2021/01/22 06:06:51;;;;;;;5.25;1.75;;;23.70;33.90;;;;;;6102146;28;80802;-62
2021/01/22 06:09:51;;;;;;;5.85;1.63;;;23.70;33.70;;;;;;6102119;28;81068;-62
2021/01/22 06:12:52;;;;;;;7.40;1.60;;;23.70;33.70;;;;;;6102204;28;82633;-61
2021/01/22 06:15:52;;;;;;;5.32;2.05;;;23.70;33.40;;;;;;6104431;28;80723;-62
2021/01/22 06:18:53;;;;;;;4.32;1.50;;;23.70;33.60;;;;;;6097441;28;80732;-61
2021/01/22 06:21:53;;;;;;;6.63;2.10;;;23.80;34.00;;;;;;6105463;28;80661;-62
2021/01/22 06:24:54;;;;;;;6.75;1.83;;;23.70;33.90;;;;;;6101930;28;80566;-61
2021/01/22 06:27:54;;;;;;;4.05;2.42;;;23.80;34.30;;;;;;6094921;28;80596;-62
2021/01/22 06:30:55;;;;;;;14.45;2.00;;;23.80;34.00;;;;;;6105015;28;80779;-62
2021/01/22 06:33:55;;;;;;;3.80;1.73;;;23.80;34.10;;;;;;6102839;28;82051;-62
2021/01/22 06:36:56;;;;;;;2.70;1.33;;;23.80;34.00;;;;;;6089250;28;81511;-60
2021/01/22 06:39:56;;;;;;;4.15;1.63;;;23.80;34.50;;;;;;6095095;28;80777;-61
2021/01/22 06:42:57;;;;;;;3.70;1.50;;;23.80;33.70;;;;;;6090055;28;81006;-61
2021/01/22 06:45:58;;;;;;;4.53;1.80;;;23.80;33.70;;;;;;6092803;28;80798;-61
2021/01/22 06:48:58;;;;;;;3.42;1.80;;;23.80;33.80;;;;;;6095854;28;80630;-63
2021/01/22 06:51:59;;;;;;;4.07;2.22;;;23.80;33.90;;;;;;6104186;28;80804;-62
2021/01/22 06:54:59;;;;;;;3.53;1.85;;;23.90;33.60;;;;;;6104586;28;80350;-61
2021/01/22 06:58:00;;;;;;;8.65;1.95;;;23.90;34.90;;;;;;6091371;28;81672;-64
2021/01/22 07:01:00;;;;;;;10.77;2.08;;;24.00;37.10;;;;;;6102855;28;81386;-61
2021/01/22 07:04:01;;;;;;;6.78;2.20;;;24.00;34.20;;;;;;6095277;28;81001;-61
2021/01/22 07:07:02;;;;;;;6.53;2.40;;;24.00;34.40;;;;;;6119918;28;82180;-61
2021/01/22 07:10:03;;;;;;;6.25;2.22;;;24.00;34.70;;;;;;6098451;28;85330;-60
2021/01/22 07:13:05;;;;;;;3.42;1.83;;;24.10;33.90;;;;;;6082473;28;81863;-60
2021/01/22 07:16:06;;;;;;;5.10;1.58;;;24.10;34.00;;;;;;6099747;28;82043;-63
2021/01/22 07:19:06;;;;;;;7.05;2.20;;;24.00;35.20;;;;;;6079297;28;80397;-63
2021/01/22 07:22:07;;;;;;;7.60;1.77;;;24.00;34.80;;;;;;6100382;28;80694;-63
2021/01/22 07:25:07;;;;;;;7.10;2.25;;;24.00;35.30;;;;;;6097970;28;81037;-63
2021/01/22 07:28:08;;;;;;;6.07;2.00;;;24.00;34.60;;;;;;6095224;28;81675;-62
2021/01/22 07:31:08;;;;;;;3.92;1.40;;;24.00;33.60;;;;;;6098773;28;80261;-63
2021/01/22 07:34:09;;;;;;;7.28;2.80;;;24.00;33.50;;;;;;6102446;28;88861;-63
2021/01/22 07:37:09;;;;;;;5.03;2.05;;;24.00;33.70;;;;;;6090345;28;80161;-63
2021/01/22 07:40:10;;;;;;;3.92;2.00;;;24.00;33.60;;;;;;6103622;28;80931;-63
2021/01/22 07:43:10;;;;;;;5.63;2.17;;;24.00;33.50;;;;;;6098637;28;80841;-62
2021/01/22 07:46:11;;;;;;;3.92;2.30;;;24.00;33.40;;;;;;6099955;28;83567;-63
2021/01/22 07:49:12;;;;;;;3.65;1.75;;;24.00;33.50;;;;;;6086128;28;80695;-63
2021/01/22 07:52:12;;;;;;;10.55;2.15;;;24.00;33.20;;;;;;6097967;28;83345;-62
2021/01/22 07:55:13;;;;;;;7.82;2.25;;;24.00;33.60;;;;;;6098160;28;80396;-63
2021/01/22 07:58:14;;;;;;;10.60;2.67;;;24.00;34.50;;;;;;6099262;28;80317;-63
2021/01/22 08:01:14;;;;;;;8.57;2.60;;;24.00;34.90;;;;;;6100030;28;80174;-62
2021/01/22 08:04:15;;;;;;;5.13;2.58;;;24.10;34.70;;;;;;6097285;28;80451;-63
2021/01/22 08:07:15;;;;;;;5.07;2.20;;;24.00;34.40;;;;;;6102956;28;80784;-63
2021/01/22 08:10:16;;;;;;;7.95;2.70;;;24.00;33.70;;;;;;6101990;28;80878;-63
2021/01/22 08:13:16;;;;;;;5.65;2.33;;;24.00;33.40;;;;;;6101686;28;80574;-62
2021/01/22 08:16:17;;;;;;;5.53;2.72;;;24.00;33.50;;;;;;6097150;28;80693;-66
2021/01/22 08:19:17;;;;;;;5.18;2.40;;;24.00;33.10;;;;;;6095714;28;81560;-63
2021/01/22 08:22:18;;;;;;;6.43;2.75;;;24.00;33.60;;;;;;6087021;28;81385;-64
2021/01/22 08:25:18;;;;;;;5.80;2.15;;;24.00;34.20;;;;;;6100151;28;81402;-63
2021/01/22 08:28:19;;;;;;;7.03;2.33;;;24.10;34.50;;;;;;6100985;28;82635;-62
2021/01/22 08:31:19;;;;;;;7.97;2.50;;;24.00;33.10;;;;;;6093944;28;81197;-63
2021/01/22 08:34:20;;;;;;;3.95;2.50;;;24.00;33.10;;;;;;6107934;28;80625;-63
2021/01/22 08:37:20;;;;;;;8.52;2.47;;;24.10;33.20;;;;;;6103445;28;82014;-64
2021/01/22 08:40:21;;;;;;;6.75;2.63;;;24.10;33.30;;;;;;6102546;28;80490;-63
2021/01/22 08:43:23;;;;;;;12.20;3.83;;;24.10;33.30;;;;;;6092433;28;80679;-63
2021/01/22 08:46:23;;;;;;;11.57;4.22;;;24.10;34.80;;;;;;6090064;28;81000;-63
2021/01/22 08:49:24;;;;;;;13.25;4.80;;;24.20;35.30;;;;;;6096285;28;86827;-62
2021/01/22 08:52:24;;;;;;;12.63;4.40;;;24.20;35.40;;;;;;6087016;28;89731;-63
2021/01/22 08:55:25;;;;;;;10.52;4.38;;;24.20;35.00;;;;;;6094421;28;80923;-63
2021/01/22 08:58:26;;;;;;;9.00;4.03;;;24.20;35.70;;;;;;6095382;28;81216;-63
2021/01/22 09:01:26;;;;;;;11.15;4.00;;;24.20;35.40;;;;;;6088644;28;80889;-63
2021/01/22 09:04:27;;;;;;;12.30;4.35;;;24.20;35.30;;;;;;6107738;28;83057;-63
2021/01/22 09:07:27;;;;;;;10.10;4.30;;;24.30;35.80;;;;;;6090870;28;83023;-63
2021/01/22 09:10:28;;;;;;;9.07;4.20;;;24.20;35.60;;;;;;6094156;28;82034;-63
2021/01/22 09:13:28;;;;;;;7.93;3.47;;;24.30;35.70;;;;;;6090715;28;81431;-62
2021/01/22 09:16:29;;;;;;;9.32;3.90;;;24.30;35.50;;;;;;6091072;28;81457;-64
2021/01/22 09:19:30;;;;;;;8.00;3.88;;;24.30;35.50;;;;;;6103169;28;80741;-64
2021/01/22 09:22:30;;;;;;;8.40;3.53;;;24.30;35.30;;;;;;6098839;28;81785;-65
2021/01/22 09:25:31;;;;;;;9.45;3.47;;;24.30;34.90;;;;;;6102629;28;81294;-64
2021/01/22 09:28:31;;;;;;;12.80;3.97;;;24.20;34.50;;;;;;6111258;28;81755;-63
2021/01/22 09:31:33;;;;;;;7.40;3.47;;;24.30;34.20;;;;;;6106135;28;80756;-62
2021/01/22 09:34:33;;;;;;;5.70;2.83;;;24.30;34.00;;;;;;6105838;28;81624;-64
2021/01/22 09:37:34;;;;;;;6.93;3.13;;;24.40;34.10;;;;;;6094332;28;80640;-63
2021/01/22 09:40:35;;;;;;;9.38;3.33;;;24.40;34.00;;;;;;6098166;28;80811;-65
2021/01/22 09:43:35;;;;;;;7.10;3.13;;;24.50;33.60;;;;;;6097761;28;80654;-64
2021/01/22 09:46:36;;;;;;;8.15;3.42;;;24.50;33.30;;;;;;6105139;28;80800;-68
2021/01/22 09:49:36;;;;;;;6.15;3.10;;;24.60;33.10;;;;;;6100048;28;80631;-65
2021/01/22 09:52:38;;;;;;;9.43;3.10;;;24.50;33.50;;;;;;6094444;28;81453;-63
2021/01/22 09:55:39;;;;;;;8.25;2.80;;;24.50;34.60;;;;;;6104988;28;80926;-63
2021/01/22 09:58:40;;;;;;;4.57;2.50;;;24.50;34.90;;;;;;6101681;28;80586;-62
2021/01/22 10:01:40;;;;;;;6.65;2.45;;;24.50;35.10;;;;;;6099509;28;80506;-63
2021/01/22 10:04:41;;;;;;;6.63;2.53;;;24.60;35.10;;;;;;6104802;28;80501;-62
2021/01/22 10:07:41;;;;;;;6.47;2.22;;;24.60;35.30;;;;;;6105954;28;81514;-63
2021/01/22 10:10:42;;;;;;;5.82;2.40;;;24.60;35.20;;;;;;6104696;28;80393;-63
2021/01/22 10:13:42;;;;;;;5.68;3.15;;;24.60;35.20;;;;;;6105123;28;80314;-62
2021/01/22 10:16:43;;;;;;;4.70;2.50;;;24.60;35.30;;;;;;6100793;28;80665;-63
2021/01/22 10:19:43;;;;;;;4.28;2.63;;;24.60;35.30;;;;;;6104803;28;80693;-63
2021/01/22 10:22:45;;;;;;;3.78;2.30;;;24.70;35.20;;;;;;6097068;28;81311;-63
2021/01/22 10:25:45;;;;;;;3.47;1.88;;;24.70;35.20;;;;;;6099780;28;81781;-63
2021/01/22 10:28:46;;;;;;;6.88;2.72;;;24.80;35.30;;;;;;6090797;28;80969;-63
2021/01/22 10:31:46;;;;;;;6.03;2.17;;;24.80;35.20;;;;;;6105908;28;80467;-63
2021/01/22 10:34:47;;;;;;;4.25;2.10;;;24.90;35.40;;;;;;6103464;28;80542;-63
2021/01/22 10:37:47;;;;;;;6.20;2.05;;;24.90;35.20;;;;;;6096202;28;80469;-65
2021/01/22 10:40:48;;;;;;;7.88;2.30;;;24.90;35.20;;;;;;6098990;28;81892;-64
2021/01/22 10:43:49;;;;;;;3.92;2.10;;;24.90;35.40;;;;;;6098593;28;80776;-64
2021/01/22 10:46:49;;;;;;;5.07;2.35;;;24.80;35.80;;;;;;6104599;28;80805;-65
2021/01/22 10:49:50;;;;;;;4.97;1.95;;;24.80;36.00;;;;;;6093162;28;82947;-66
2021/01/22 10:52:50;;;;;;;5.90;2.15;;;24.70;36.50;;;;;;6097860;28;80974;-65
2021/01/22 10:55:51;;;;;;;5.80;2.80;;;24.60;36.50;;;;;;6097189;28;81481;-67
2021/01/22 10:58:52;;;;;;;5.75;2.35;;;24.60;36.70;;;;;;6097686;28;81215;-65
2021/01/22 11:01:53;;;;;;;5.30;2.30;;;24.60;37.00;;;;;;6099676;28;80491;-66
2021/01/22 11:04:53;;;;;;;6.10;1.90;;;24.60;37.10;;;;;;6090641;28;81057;-65
2021/01/22 11:07:54;;;;;;;7.15;1.88;;;24.50;37.20;;;;;;6100943;28;81035;-64
2021/01/22 11:10:54;;;;;;;3.65;1.77;;;24.40;37.30;;;;;;6095876;28;80647;-64
2021/01/22 11:13:55;;;;;;;4.22;2.05;;;24.40;37.20;;;;;;6105984;28;81645;-64
2021/01/22 11:16:55;;;;;;;3.47;1.65;;;24.40;37.30;;;;;;6097530;28;80662;-64
2021/01/22 11:19:56;;;;;;;6.80;2.20;;;24.40;37.30;;;;;;6101003;28;81020;-65
2021/01/22 11:22:57;;;;;;;8.15;2.22;;;24.30;37.60;;;;;;6097453;28;80961;-65
2021/01/22 11:25:57;;;;;;;4.68;1.73;;;24.30;37.40;;;;;;6100118;28;84185;-65
2021/01/22 11:28:58;;;;;;;4.03;1.98;;;24.30;37.80;;;;;;6092948;28;82713;-64
2021/01/22 11:31:58;;;;;;;3.67;1.67;;;24.20;38.10;;;;;;6102766;28;80991;-64
2021/01/22 11:34:59;;;;;;;2.72;1.80;;;24.20;38.60;;;;;;6109152;28;80865;-64
2021/01/22 11:38:00;;;;;;;6.82;2.17;;;24.20;39.00;;;;;;6076125;28;80800;-64
2021/01/22 11:41:00;;;;;;;8.45;2.05;;;24.20;39.40;;;;;;6100521;28;83026;-64
2021/01/22 11:44:01;;;;;;;5.53;2.20;;;24.10;39.70;;;;;;6088124;28;82157;-64
2021/01/22 11:47:01;;;;;;;3.80;2.00;;;24.10;40.60;;;;;;6098841;28;80824;-63
2021/01/22 11:50:02;;;;;;;3.00;1.88;;;24.20;39.80;;;;;;6099849;28;87932;-64
2021/01/22 11:53:03;;;;;;;3.80;2.05;;;24.10;40.00;;;;;;6099749;28;80315;-65
2021/01/22 11:56:03;;;;;;;7.85;2.33;;;24.10;39.90;;;;;;6101591;28;80399;-65
2021/01/22 11:59:04;;;;;;;5.93;2.03;;;24.00;39.70;;;;;;6113820;28;80526;-65
2021/01/22 12:02:05;;;;;;;8.07;2.35;;;23.90;39.60;;;;;;6101345;28;81814;-63
2021/01/22 12:05:05;;;;;;;9.00;2.42;;;23.90;39.30;;;;;;6098454;28;80590;-67
2021/01/22 12:08:06;;;;;;;3.72;1.73;;;23.90;39.20;;;;;;6097488;28;81761;-66
2021/01/22 12:11:06;;;;;;;7.90;2.17;;;23.80;39.10;;;;;;6094620;28;82658;-66
2021/01/22 12:14:07;;;;;;;8.15;1.98;;;23.90;39.00;;;;;;6098473;28;81534;-66
2021/01/22 12:17:07;;;;;;;5.13;2.13;;;23.80;39.00;;;;;;6088518;28;82109;-66
2021/01/22 12:20:08;;;;;;;6.55;2.83;;;23.70;38.70;;;;;;6106359;28;80590;-67
2021/01/22 12:23:08;;;;;;;3.60;1.92;;;23.70;38.40;;;;;;6113328;28;80403;-67
2021/01/22 12:26:09;;;;;;;5.40;2.45;;;23.60;39.20;;;;;;6101491;28;80434;-66
2021/01/22 12:29:09;;;;;;;3.15;2.35;;;23.70;38.40;;;;;;6096048;28;81555;-66
2021/01/22 12:32:10;;;;;;;6.93;2.20;;;23.70;38.40;;;;;;6093517;28;80513;-67
2021/01/22 12:35:11;;;;;;;3.60;1.77;;;23.70;38.30;;;;;;6098244;28;81196;-67
2021/01/22 12:38:11;;;;;;;3.65;2.08;;;23.70;38.20;;;;;;6101564;28;81133;-66
2021/01/22 12:41:12;;;;;;;2.60;1.85;;;23.80;38.50;;;;;;6096428;28;80324;-66
2021/01/22 12:44:12;;;;;;;5.32;2.50;;;23.80;38.50;;;;;;6101658;28;80453;-67
2021/01/22 12:47:13;;;;;;;4.55;2.05;;;23.80;38.50;;;;;;6081937;28;80689;-67
2021/01/22 12:50:13;;;;;;;4.05;2.25;;;23.80;38.60;;;;;;6107584;28;81141;-66
2021/01/22 12:53:14;;;;;;;5.07;1.98;;;23.90;38.80;;;;;;6105755;28;80671;-66
2021/01/22 12:56:14;;;;;;;6.30;2.60;;;23.90;38.70;;;;;;6106903;28;81366;-67
2021/01/22 12:59:15;;;;;;;4.53;2.10;;;23.90;38.70;;;;;;6107077;28;81984;-66
2021/01/22 13:02:15;;;;;;;6.15;3.00;;;23.90;39.60;;;;;;6106120;28;82611;-67
2021/01/22 13:05:16;;;;;;;6.57;2.30;;;23.90;39.20;;;;;;6096199;28;82273;-67
2021/01/22 13:08:16;;;;;;;4.80;2.50;;;23.90;39.20;;;;;;6104828;28;80922;-67
2021/01/22 13:11:17;;;;;;;3.63;2.35;;;23.90;39.20;;;;;;6104294;28;81644;-67
2021/01/22 13:14:17;;;;;;;4.50;2.33;;;23.90;39.60;;;;;;6107894;28;80456;-67
2021/01/22 13:17:18;;;;;;;4.25;2.50;;;23.90;39.60;;;;;;6106373;28;82246;-67
2021/01/22 13:20:19;;;;;;;4.60;2.33;;;23.90;39.70;;;;;;6107723;28;81348;-67
2021/01/22 13:23:19;;;;;;;5.68;2.30;;;23.90;39.80;;;;;;6107686;28;80618;-67
2021/01/22 13:26:20;;;;;;;4.57;1.98;;;23.90;40.00;;;;;;6103516;28;80869;-67
2021/01/22 13:29:20;;;;;;;5.88;2.58;;;23.90;40.00;;;;;;6108750;28;80891;-66
2021/01/22 13:32:21;;;;;;;5.00;2.53;;;23.90;40.10;;;;;;6102333;28;80611;-67
2021/01/22 13:35:21;;;;;;;4.20;2.35;;;23.90;40.30;;;;;;6104888;28;80585;-67
2021/01/22 13:38:22;;;;;;;6.07;2.90;;;23.90;40.20;;;;;;6106362;28;80869;-66
2021/01/22 13:41:23;;;;;;;3.75;2.08;;;23.90;40.20;;;;;;6102424;28;80844;-66
2021/01/22 13:44:23;;;;;;;3.85;2.40;;;23.90;40.40;;;;;;6103139;28;82590;-68
2021/01/22 13:47:24;;;;;;;4.13;1.88;;;23.80;40.10;;;;;;6110749;28;80831;-66
2021/01/22 13:50:24;;;;;;;3.75;2.15;;;23.80;40.60;;;;;;6076641;28;80288;-66
2021/01/22 13:53:25;;;;;;;4.18;2.22;;;23.70;40.00;;;;;;6097635;28;80935;-66
2021/01/22 13:56:25;;;;;;;4.18;2.30;;;23.70;40.10;;;;;;6077004;28;81703;-65
2021/01/22 13:59:26;;;;;;;5.00;2.10;;;23.70;40.30;;;;;;6100798;28;81906;-64
2021/01/22 14:02:26;;;;;;;4.88;2.28;;;23.70;40.20;;;;;;6100839;28;80865;-65
2021/01/22 14:05:27;;;;;;;4.90;2.45;;;23.70;40.20;;;;;;6098311;28;80510;-66
2021/01/22 14:08:28;;;;;;;10.52;2.92;;;23.60;40.20;;;;;;6097057;28;80992;-67
2021/01/22 14:11:28;;;;;;;7.18;2.60;;;23.70;40.10;;;;;;6104697;28;81244;-65
2021/01/22 14:14:29;;;;;;;5.63;2.10;;;23.80;39.80;;;;;;6106683;28;80669;-64
2021/01/22 14:17:29;;;;;;;6.75;2.95;;;23.80;39.30;;;;;;6105582;28;80754;-64
2021/01/22 14:20:30;;;;;;;4.75;2.55;;;23.80;38.90;;;;;;6076664;28;82200;-67
2021/01/22 14:23:30;;;;;;;5.88;2.30;;;23.80;38.90;;;;;;6092679;28;81690;-66
2021/01/22 14:26:31;;;;;;;6.65;2.30;;;23.90;38.90;;;;;;6100809;28;80698;-65
2021/01/22 14:29:32;;;;;;;5.85;3.20;;;23.90;38.60;;;;;;6101827;28;82222;-64
2021/01/22 14:32:32;;;;;;;9.98;3.13;;;23.90;38.70;;;;;;6077909;28;81528;-64
2021/01/22 14:35:33;;;;;;;5.75;3.33;;;23.90;38.60;;;;;;6100119;28;80797;-63
2021/01/22 14:38:33;;;;;;;6.85;2.45;;;23.90;38.30;;;;;;6074497;28;81781;-63
2021/01/22 14:41:34;;;;;;;8.15;3.30;;;23.90;38.00;;;;;;6098623;28;81983;-65
2021/01/22 14:44:34;;;;;;;7.88;2.83;;;23.90;37.90;;;;;;6104610;28;80522;-64
2021/01/22 14:47:35;;;;;;;8.38;3.30;;;23.90;37.50;;;;;;6100244;28;81173;-65
2021/01/22 14:50:36;;;;;;;7.20;2.83;;;23.90;37.50;;;;;;6093648;28;81672;-64
2021/01/22 14:53:36;;;;;;;3.97;2.88;;;23.90;37.20;;;;;;6096059;28;81151;-65
2021/01/22 14:56:37;;;;;;;7.78;2.92;;;23.90;37.80;;;;;;6104976;28;81018;-65
2021/01/22 14:59:37;;;;;;;11.32;3.50;;;23.90;38.60;;;;;;6092681;28;80978;-63
2021/01/22 15:02:38;;;;;;;8.65;3.17;;;23.90;38.60;;;;;;6097127;28;81391;-63
2021/01/22 15:05:38;;;;;;;5.40;3.05;;;24.00;38.70;;;;;;6101194;28;81079;-64
2021/01/22 15:08:42;;;;;;;6.47;3.33;;;24.00;38.60;;;;;;6094857;28;80672;-64
2021/01/22 15:11:43;;;;;;;6.60;3.15;;;24.00;38.50;;;;;;6101485;28;80840;-65
2021/01/22 15:14:43;;;;;;;7.85;3.30;;;24.00;38.50;;;;;;6093872;28;81324;-64
2021/01/22 15:17:44;;;;;;;3.67;2.60;;;24.00;38.60;;;;;;6093538;28;80867;-65
2021/01/22 15:20:44;;;;;;;5.63;2.92;;;24.00;38.80;;;;;;6096796;28;81436;-65
2021/01/22 15:23:45;;;;;;;6.72;3.10;;;24.00;38.50;;;;;;6092813;28;80446;-64
2021/01/22 15:26:46;;;;;;;7.28;2.72;;;24.00;38.60;;;;;;6099017;28;80961;-65
2021/01/22 15:29:46;;;;;;;13.55;3.30;;;24.00;38.40;;;;;;6095859;28;81016;-63
2021/01/22 15:32:48;;;;;;;4.82;3.30;;;24.00;38.40;;;;;;6107684;28;82872;-63
2021/01/22 15:35:49;;;;;;;7.43;2.83;;;24.00;38.20;;;;;;6099707;28;80347;-63
2021/01/22 15:38:49;;;;;;;5.88;2.72;;;24.10;38.20;;;;;;6098783;28;80774;-62